sensor_id;sensor_type;location;lat;lon;timestamp;pressure;altitude;pressure_sealevel;temperature;humidity
81802;BME280;71199;52.490;5.448;2024-02-16T00:00:01;100994.09;;;10.73;100.00
81802;BME280;71199;52.490;5.448;2024-02-16T00:02:26;100988.09;;;10.69;100.00
81802;BME280;71199;52.490;5.448;2024-02-16T00:04:52;100991.66;;;10.62;100.00
81802;BME280;71199;52.490;5.448;2024-02-16T00:07:17;100995.28;;;10.71;100.00
81802;BME280;71199;52.490;5.448;2024-02-16T00:09:43;100995.47;;;10.61;100.00
81802;BME280;71199;52.490;5.448;2024-02-16T00:12:08;101007.31;;;10.61;100.00
81802;BME280;71199;52.490;5.448;2024-02-16T00:14:33;100992.53;;;10.62;100.00
81802;BME280;71199;52.490;5.448;2024-02-16T00:16:59;100987.22;;;10.53;100.00
81802;BME280;71199;52.490;5.448;2024-02-16T00:19:24;100990.28;;;10.49;100.00
81802;BME280;71199;52.490;5.448;2024-02-16T00:21:50;101000.09;;;10.44;100.00
81802;BME280;71199;52.490;5.448;2024-02-16T00:24:16;101000.94;;;10.44;100.00
81802;BME280;71199;52.490;5.448;2024-02-16T00:26:41;100996.44;;;10.43;100.00
81802;BME280;71199;52.490;5.448;2024-02-16T00:29:08;100990.94;;;10.35;100.00
81802;BME280;71199;52.490;5.448;2024-02-16T00:31:34;100995.94;;;10.40;100.00
81802;BME280;71199;52.490;5.448;2024-02-16T00:33:59;100993.19;;;10.32;100.00
81802;BME280;71199;52.490;5.448;2024-02-16T00:36:26;100997.81;;;10.31;100.00
81802;BME280;71199;52.490;5.448;2024-02-16T00:38:51;100993.00;;;10.33;100.00
81802;BME280;71199;52.490;5.448;2024-02-16T00:41:19;100981.69;;;10.36;100.00
81802;BME280;71199;52.490;5.448;2024-02-16T00:43:44;100990.25;;;10.33;100.00
81802;BME280;71199;52.490;5.448;2024-02-16T00:46:10;100990.19;;;10.25;100.00
81802;BME280;71199;52.490;5.448;2024-02-16T00:48:35;100990.03;;;10.26;100.00
81802;BME280;71199;52.490;5.448;2024-02-16T00:51:00;100991.94;;;10.26;100.00
81802;BME280;71199;52.490;5.448;2024-02-16T00:53:26;100988.47;;;10.16;100.00
81802;BME280;71199;52.490;5.448;2024-02-16T00:55:51;100973.91;;;10.15;100.00
81802;BME280;71199;52.490;5.448;2024-02-16T00:58:17;100984.69;;;10.17;100.00
81802;BME280;71199;52.490;5.448;2024-02-16T01:00:42;100973.22;;;10.21;100.00
81802;BME280;71199;52.490;5.448;2024-02-16T01:03:08;100975.97;;;10.21;100.00
81802;BME280;71199;52.490;5.448;2024-02-16T01:05:34;100979.19;;;10.17;100.00
81802;BME280;71199;52.490;5.448;2024-02-16T01:08:00;100983.69;;;10.18;100.00
81802;BME280;71199;52.490;5.448;2024-02-16T01:10:26;100969.75;;;10.11;100.00
81802;BME280;71199;52.490;5.448;2024-02-16T01:12:51;100979.19;;;10.17;100.00
81802;BME280;71199;52.490;5.448;2024-02-16T01:15:18;100972.81;;;10.08;100.00
81802;BME280;71199;52.490;5.448;2024-02-16T01:17:43;100977.47;;;10.07;100.00
81802;BME280;71199;52.490;5.448;2024-02-16T01:20:09;100968.81;;;9.94;100.00
81802;BME280;71199;52.490;5.448;2024-02-16T01:22:36;100962.16;;;9.97;100.00
81802;BME280;71199;52.490;5.448;2024-02-16T01:25:01;100966.47;;;9.99;100.00
81802;BME280;71199;52.490;5.448;2024-02-16T01:27:26;100967.69;;;10.05;100.00
81802;BME280;71199;52.490;5.448;2024-02-16T01:29:52;100962.66;;;10.00;100.00
81802;BME280;71199;52.490;5.448;2024-02-16T01:32:18;100964.38;;;9.93;100.00
81802;BME280;71199;52.490;5.448;2024-02-16T01:34:44;100959.56;;;9.87;100.00
81802;BME280;71199;52.490;5.448;2024-02-16T01:37:12;100953.00;;;9.80;100.00
81802;BME280;71199;52.490;5.448;2024-02-16T01:39:37;100957.47;;;9.81;100.00
81802;BME280;71199;52.490;5.448;2024-02-16T01:42:03;100956.78;;;9.79;100.00
81802;BME280;71199;52.490;5.448;2024-02-16T01:44:28;100957.44;;;9.73;100.00
81802;BME280;71199;52.490;5.448;2024-02-16T01:46:54;100958.13;;;9.75;100.00
81802;BME280;71199;52.490;5.448;2024-02-16T01:49:19;100958.31;;;9.81;100.00
81802;BME280;71199;52.490;5.448;2024-02-16T01:51:46;100954.84;;;9.71;100.00
81802;BME280;71199;52.490;5.448;2024-02-16T01:54:12;100962.19;;;9.62;100.00
81802;BME280;71199;52.490;5.448;2024-02-16T01:56:37;100963.00;;;9.55;100.00
81802;BME280;71199;52.490;5.448;2024-02-16T01:59:03;100956.72;;;9.62;100.00
81802;BME280;71199;52.490;5.448;2024-02-16T02:01:29;100958.41;;;9.63;100.00
81802;BME280;71199;52.490;5.448;2024-02-16T02:03:55;100966.34;;;9.66;100.00
81802;BME280;71199;52.490;5.448;2024-02-16T02:06:20;100959.06;;;9.57;100.00
81802;BME280;71199;52.490;5.448;2024-02-16T02:08:46;100959.41;;;9.54;100.00
81802;BME280;71199;52.490;5.448;2024-02-16T02:11:12;100948.50;;;9.71;100.00
81802;BME280;71199;52.490;5.448;2024-02-16T02:13:37;100937.78;;;9.51;100.00
81802;BME280;71199;52.490;5.448;2024-02-16T02:16:04;100940.00;;;9.47;100.00
81802;BME280;71199;52.490;5.448;2024-02-16T02:18:31;100938.00;;;9.58;100.00
81802;BME280;71199;52.490;5.448;2024-02-16T02:20:56;100919.16;;;9.63;100.00
81802;BME280;71199;52.490;5.448;2024-02-16T02:23:22;100921.91;;;9.71;100.00
81802;BME280;71199;52.490;5.448;2024-02-16T02:25:47;100936.34;;;9.73;100.00
81802;BME280;71199;52.490;5.448;2024-02-16T02:28:14;100917.00;;;9.83;100.00
81802;BME280;71199;52.490;5.448;2024-02-16T02:30:41;100905.19;;;9.91;100.00
81802;BME280;71199;52.490;5.448;2024-02-16T02:33:06;100902.78;;;9.96;100.00
81802;BME280;71199;52.490;5.448;2024-02-16T02:35:31;100904.31;;;9.98;100.00
81802;BME280;71199;52.490;5.448;2024-02-16T02:37:57;100921.16;;;9.95;100.00
81802;BME280;71199;52.490;5.448;2024-02-16T02:40:22;100919.38;;;9.86;100.00
81802;BME280;71199;52.490;5.448;2024-02-16T02:42:48;100923.50;;;9.82;100.00
81802;BME280;71199;52.490;5.448;2024-02-16T02:45:13;100927.13;;;9.82;100.00
81802;BME280;71199;52.490;5.448;2024-02-16T02:47:38;100924.22;;;9.92;100.00
81802;BME280;71199;52.490;5.448;2024-02-16T02:50:04;100915.63;;;9.87;100.00
81802;BME280;71199;52.490;5.448;2024-02-16T02:52:30;100903.63;;;9.96;100.00
81802;BME280;71199;52.490;5.448;2024-02-16T02:54:55;100900.19;;;9.94;100.00
81802;BME280;71199;52.490;5.448;2024-02-16T02:57:20;100908.44;;;9.94;100.00
81802;BME280;71199;52.490;5.448;2024-02-16T02:59:46;100903.13;;;9.93;100.00
81802;BME280;71199;52.490;5.448;2024-02-16T03:02:11;100899.88;;;9.89;100.00
81802;BME280;71199;52.490;5.448;2024-02-16T03:04:36;100903.44;;;9.81;100.00
81802;BME280;71199;52.490;5.448;2024-02-16T03:07:02;100897.75;;;9.75;100.00
81802;BME280;71199;52.490;5.448;2024-02-16T03:09:28;100893.75;;;9.61;100.00
81802;BME280;71199;52.490;5.448;2024-02-16T03:11:53;100880.53;;;9.48;100.00
81802;BME280;71199;52.490;5.448;2024-02-16T03:14:18;100898.69;;;9.49;100.00
81802;BME280;71199;52.490;5.448;2024-02-16T03:16:44;100895.59;;;9.44;100.00
81802;BME280;71199;52.490;5.448;2024-02-16T03:19:09;100894.59;;;9.53;100.00
81802;BME280;71199;52.490;5.448;2024-02-16T03:21:35;100899.72;;;9.48;100.00
81802;BME280;71199;52.490;5.448;2024-02-16T03:24:01;100891.81;;;9.45;100.00
81802;BME280;71199;52.490;5.448;2024-02-16T03:26:27;100899.56;;;9.50;100.00
81802;BME280;71199;52.490;5.448;2024-02-16T03:28:52;100900.38;;;9.42;100.00
81802;BME280;71199;52.490;5.448;2024-02-16T03:31:19;100900.38;;;9.42;100.00
81802;BME280;71199;52.490;5.448;2024-02-16T03:33:45;100894.59;;;9.53;100.00
81802;BME280;71199;52.490;5.448;2024-02-16T03:36:11;100891.16;;;9.51;100.00
81802;BME280;71199;52.490;5.448;2024-02-16T03:38:41;100892.06;;;9.60;100.00
81802;BME280;71199;52.490;5.448;2024-02-16T03:41:06;100894.63;;;9.61;100.00
81802;BME280;71199;52.490;5.448;2024-02-16T03:43:32;100890.34;;;9.67;100.00
81802;BME280;71199;52.490;5.448;2024-02-16T03:45:57;100889.00;;;9.71;100.00
81802;BME280;71199;52.490;5.448;2024-02-16T03:48:22;100896.03;;;9.74;100.00
81802;BME280;71199;52.490;5.448;2024-02-16T03:50:48;100892.94;;;9.68;100.00
81802;BME280;71199;52.490;5.448;2024-02-16T03:53:13;100881.28;;;9.66;100.00
81802;BME280;71199;52.490;5.448;2024-02-16T03:55:38;100876.06;;;9.55;100.00
81802;BME280;71199;52.490;5.448;2024-02-16T03:58:04;100879.47;;;9.49;100.00
81802;BME280;71199;52.490;5.448;2024-02-16T04:00:29;100881.22;;;9.50;100.00
81802;BME280;71199;52.490;5.448;2024-02-16T04:02:55;100880.13;;;9.43;100.00
81802;BME280;71199;52.490;5.448;2024-02-16T04:05:20;100877.28;;;9.53;100.00
81802;BME280;71199;52.490;5.448;2024-02-16T04:07:45;100886.69;;;9.50;100.00
81802;BME280;71199;52.490;5.448;2024-02-16T04:10:11;100874.72;;;9.59;100.00
81802;BME280;71199;52.490;5.448;2024-02-16T04:12:36;100877.50;;;9.67;100.00
81802;BME280;71199;52.490;5.448;2024-02-16T04:15:02;100873.72;;;9.68;100.00
81802;BME280;71199;52.490;5.448;2024-02-16T04:17:28;100882.59;;;9.54;100.00
81802;BME280;71199;52.490;5.448;2024-02-16T04:19:53;100888.09;;;9.54;100.00
81802;BME280;71199;52.490;5.448;2024-02-16T04:22:18;100873.69;;;9.52;100.00
81802;BME280;71199;52.490;5.448;2024-02-16T04:24:44;100876.25;;;9.54;100.00
81802;BME280;71199;52.490;5.448;2024-02-16T04:27:09;100882.94;;;9.59;100.00
81802;BME280;71199;52.490;5.448;2024-02-16T04:29:34;100887.06;;;9.63;100.00
81802;BME280;71199;52.490;5.448;2024-02-16T04:32:00;100886.22;;;9.63;100.00
81802;BME280;71199;52.490;5.448;2024-02-16T04:34:25;100889.81;;;9.63;100.00
81802;BME280;71199;52.490;5.448;2024-02-16T04:36:50;100888.47;;;9.67;100.00
81802;BME280;71199;52.490;5.448;2024-02-16T04:39:16;100882.97;;;9.67;100.00
81802;BME280;71199;52.490;5.448;2024-02-16T04:41:42;100886.78;;;9.75;100.00
81802;BME280;71199;52.490;5.448;2024-02-16T04:44:07;100871.34;;;9.82;100.00
81802;BME280;71199;52.490;5.448;2024-02-16T04:46:33;100870.16;;;9.76;100.00
81802;BME280;71199;52.490;5.448;2024-02-16T04:48:58;100873.91;;;9.75;100.00
81802;BME280;71199;52.490;5.448;2024-02-16T04:51:24;100876.13;;;9.72;100.00
81802;BME280;71199;52.490;5.448;2024-02-16T04:53:49;100870.66;;;9.80;100.00
81802;BME280;71199;52.490;5.448;2024-02-16T04:56:14;100865.34;;;9.70;100.00
81802;BME280;71199;52.490;5.448;2024-02-16T04:58:41;100865.00;;;9.73;100.00
81802;BME280;71199;52.490;5.448;2024-02-16T05:01:06;100873.25;;;9.81;100.00
81802;BME280;71199;52.490;5.448;2024-02-16T05:03:32;100878.75;;;9.89;100.00
81802;BME280;71199;52.490;5.448;2024-02-16T05:05:57;100866.22;;;9.87;100.00
81802;BME280;71199;52.490;5.448;2024-02-16T05:08:23;100861.75;;;9.86;100.00
81802;BME280;71199;52.490;5.448;2024-02-16T05:10:48;100865.53;;;9.85;100.00
81802;BME280;71199;52.490;5.448;2024-02-16T05:13:13;100857.31;;;9.93;100.00
81802;BME280;71199;52.490;5.448;2024-02-16T05:15:39;100851.84;;;10.01;100.00
81802;BME280;71199;52.490;5.448;2024-02-16T05:18:05;100851.69;;;9.95;100.00
81802;BME280;71199;52.490;5.448;2024-02-16T05:20:30;100852.00;;;10.00;100.00
81802;BME280;71199;52.490;5.448;2024-02-16T05:22:55;100842.41;;;10.04;100.00
81802;BME280;71199;52.490;5.448;2024-02-16T05:25:22;100851.47;;;9.96;100.00
81802;BME280;71199;52.490;5.448;2024-02-16T05:27:47;100850.47;;;9.97;100.00
81802;BME280;71199;52.490;5.448;2024-02-16T05:30:13;100851.16;;;9.91;100.00
81802;BME280;71199;52.490;5.448;2024-02-16T05:32:41;100855.94;;;9.81;100.00
81802;BME280;71199;52.490;5.448;2024-02-16T05:35:07;100845.63;;;9.75;100.00
81802;BME280;71199;52.490;5.448;2024-02-16T05:37:48;100850.94;;;9.76;100.00
81802;BME280;71199;52.490;5.448;2024-02-16T05:40:16;100852.44;;;9.62;100.00
81802;BME280;71199;52.490;5.448;2024-02-16T05:42:51;100848.31;;;9.50;100.00
81802;BME280;71199;52.490;5.448;2024-02-16T05:45:17;100850.31;;;9.40;100.00
81802;BME280;71199;52.490;5.448;2024-02-16T05:47:43;100847.91;;;9.37;100.00
81802;BME280;71199;52.490;5.448;2024-02-16T05:50:11;100843.28;;;9.37;100.00
81802;BME280;71199;52.490;5.448;2024-02-16T05:52:38;100850.28;;;9.32;100.00
81802;BME280;71199;52.490;5.448;2024-02-16T05:55:03;100861.91;;;9.25;100.00
81802;BME280;71199;52.490;5.448;2024-02-16T05:57:29;100850.56;;;9.20;100.00
81802;BME280;71199;52.490;5.448;2024-02-16T05:59:55;100855.72;;;9.23;100.00
81802;BME280;71199;52.490;5.448;2024-02-16T06:02:21;100873.03;;;9.24;100.00
81802;BME280;71199;52.490;5.448;2024-02-16T06:04:46;100872.16;;;9.15;100.00
81802;BME280;71199;52.490;5.448;2024-02-16T06:07:11;100871.59;;;9.12;100.00
81802;BME280;71199;52.490;5.448;2024-02-16T06:09:37;100872.66;;;9.11;100.00
81802;BME280;71199;52.490;5.448;2024-02-16T06:12:06;100882.41;;;9.13;100.00
81802;BME280;71199;52.490;5.448;2024-02-16T06:14:32;100880.91;;;9.19;100.00
81802;BME280;71199;52.490;5.448;2024-02-16T06:16:58;100877.66;;;9.23;100.00
81802;BME280;71199;52.490;5.448;2024-02-16T06:19:24;100893.78;;;9.26;100.00
81802;BME280;71199;52.490;5.448;2024-02-16T06:21:50;100876.19;;;9.37;100.00
81802;BME280;71199;52.490;5.448;2024-02-16T06:24:15;100887.16;;;9.37;100.00
81802;BME280;71199;52.490;5.448;2024-02-16T06:26:40;100891.00;;;9.53;100.00
81802;BME280;71199;52.490;5.448;2024-02-16T06:29:06;100896.81;;;9.50;100.00
81802;BME280;71199;52.490;5.448;2024-02-16T06:31:31;100890.47;;;9.57;100.00
81802;BME280;71199;52.490;5.448;2024-02-16T06:33:57;100898.59;;;9.67;100.00
81802;BME280;71199;52.490;5.448;2024-02-16T06:36:23;100894.63;;;9.69;100.00
81802;BME280;71199;52.490;5.448;2024-02-16T06:38:48;100898.78;;;9.74;100.00
81802;BME280;71199;52.490;5.448;2024-02-16T06:41:13;100905.31;;;9.81;100.00
81802;BME280;71199;52.490;5.448;2024-02-16T06:43:39;100897.41;;;9.78;100.00
81802;BME280;71199;52.490;5.448;2024-02-16T06:46:04;100903.28;;;9.83;100.00
81802;BME280;71199;52.490;5.448;2024-02-16T06:48:30;100905.38;;;9.97;100.00
81802;BME280;71199;52.490;5.448;2024-02-16T06:50:55;100907.28;;;10.05;100.00
81802;BME280;71199;52.490;5.448;2024-02-16T06:53:21;100909.84;;;10.06;100.00
81802;BME280;71199;52.490;5.448;2024-02-16T06:55:46;100905.38;;;10.05;100.00
81802;BME280;71199;52.490;5.448;2024-02-16T06:58:12;100901.81;;;10.21;100.00
81802;BME280;71199;52.490;5.448;2024-02-16T07:00:37;100908.16;;;10.22;100.00
81802;BME280;71199;52.490;5.448;2024-02-16T07:03:02;100913.97;;;10.19;100.00
81802;BME280;71199;52.490;5.448;2024-02-16T07:05:28;100915.03;;;10.18;100.00
81802;BME280;71199;52.490;5.448;2024-02-16T07:07:53;100928.25;;;10.22;100.00
81802;BME280;71199;52.490;5.448;2024-02-16T07:10:19;100922.41;;;10.25;100.00
81802;BME280;71199;52.490;5.448;2024-02-16T07:12:44;100930.00;;;10.32;100.00
81802;BME280;71199;52.490;5.448;2024-02-16T07:15:11;100925.66;;;10.29;100.00
81802;BME280;71199;52.490;5.448;2024-02-16T07:17:37;100927.97;;;10.34;100.00
81802;BME280;71199;52.490;5.448;2024-02-16T07:20:03;100933.44;;;10.34;100.00
81802;BME280;71199;52.490;5.448;2024-02-16T07:22:32;100928.97;;;10.33;100.00
81802;BME280;71199;52.490;5.448;2024-02-16T07:24:59;100938.94;;;10.34;100.00
81802;BME280;71199;52.490;5.448;2024-02-16T07:27:28;100932.09;;;10.38;100.00
81802;BME280;71199;52.490;5.448;2024-02-16T07:29:54;100941.00;;;10.32;100.00
81802;BME280;71199;52.490;5.448;2024-02-16T07:32:19;100942.88;;;10.39;100.00
81802;BME280;71199;52.490;5.448;2024-02-16T07:34:46;100947.53;;;10.39;100.00
81802;BME280;71199;52.490;5.448;2024-02-16T07:37:13;100949.59;;;10.45;100.00
81802;BME280;71199;52.490;5.448;2024-02-16T07:39:38;100949.06;;;10.49;100.00
81802;BME280;71199;52.490;5.448;2024-02-16T07:42:03;100947.69;;;10.62;100.00
81802;BME280;71199;52.490;5.448;2024-02-16T07:44:29;100943.94;;;10.63;100.00
81802;BME280;71199;52.490;5.448;2024-02-16T07:46:54;100952.88;;;10.65;100.00
81802;BME280;71199;52.490;5.448;2024-02-16T07:49:20;100950.28;;;10.63;100.00
81802;BME280;71199;52.490;5.448;2024-02-16T07:51:45;100947.19;;;10.66;100.00
81802;BME280;71199;52.490;5.448;2024-02-16T07:54:10;100946.69;;;10.71;100.00
81802;BME280;71199;52.490;5.448;2024-02-16T07:56:36;100955.63;;;10.73;100.00
81802;BME280;71199;52.490;5.448;2024-02-16T07:59:01;100959.38;;;10.80;100.00
81802;BME280;71199;52.490;5.448;2024-02-16T08:01:27;100961.28;;;10.80;100.00
81802;BME280;71199;52.490;5.448;2024-02-16T08:03:52;100965.56;;;10.82;100.00
81802;BME280;71199;52.490;5.448;2024-02-16T08:06:18;100972.81;;;10.83;100.00
81802;BME280;71199;52.490;5.448;2024-02-16T08:08:46;100981.53;;;10.87;100.00
81802;BME280;71199;52.490;5.448;2024-02-16T08:11:12;100980.16;;;10.91;100.00
81802;BME280;71199;52.490;5.448;2024-02-16T08:13:38;100988.09;;;10.86;100.00
81802;BME280;71199;52.490;5.448;2024-02-16T08:16:03;100995.13;;;10.88;100.00
81802;BME280;71199;52.490;5.448;2024-02-16T08:18:32;101007.66;;;10.99;100.00
81802;BME280;71199;52.490;5.448;2024-02-16T08:20:58;101013.00;;;11.01;100.00
81802;BME280;71199;52.490;5.448;2024-02-16T08:23:24;101011.44;;;11.06;100.00
81802;BME280;71199;52.490;5.448;2024-02-16T08:25:50;101010.59;;;11.06;100.00
81802;BME280;71199;52.490;5.448;2024-02-16T08:28:15;101016.41;;;11.19;100.00
81802;BME280;71199;52.490;5.448;2024-02-16T08:30:40;101001.81;;;11.19;100.00
81802;BME280;71199;52.490;5.448;2024-02-16T08:33:09;101014.50;;;11.28;100.00
81802;BME280;71199;52.490;5.448;2024-02-16T08:35:34;101010.56;;;11.31;100.00
81802;BME280;71199;52.490;5.448;2024-02-16T08:38:00;101021.56;;;11.39;100.00
81802;BME280;71199;52.490;5.448;2024-02-16T08:40:25;101021.19;;;11.42;100.00
81802;BME280;71199;52.490;5.448;2024-02-16T08:42:50;101023.91;;;11.58;100.00
81802;BME280;71199;52.490;5.448;2024-02-16T08:45:16;101024.59;;;11.60;100.00
81802;BME280;71199;52.490;5.448;2024-02-16T08:47:43;101019.63;;;11.64;100.00
81802;BME280;71199;52.490;5.448;2024-02-16T08:50:09;101025.81;;;11.66;100.00
81802;BME280;71199;52.490;5.448;2024-02-16T08:52:35;101013.41;;;11.70;100.00
81802;BME280;71199;52.490;5.448;2024-02-16T08:55:00;101027.69;;;11.74;100.00
81802;BME280;71199;52.490;5.448;2024-02-16T08:57:26;101031.44;;;11.81;100.00
81802;BME280;71199;52.490;5.448;2024-02-16T08:59:51;101031.56;;;11.96;100.00
81802;BME280;71199;52.490;5.448;2024-02-16T09:02:16;101032.94;;;12.00;100.00
81802;BME280;71199;52.490;5.448;2024-02-16T09:04:42;101028.63;;;12.05;100.00
81802;BME280;71199;52.490;5.448;2024-02-16T09:07:07;101053.91;;;12.09;100.00
81802;BME280;71199;52.490;5.448;2024-02-16T09:09:33;101045.97;;;12.14;100.00
81802;BME280;71199;52.490;5.448;2024-02-16T09:11:58;101046.13;;;12.13;100.00
81802;BME280;71199;52.490;5.448;2024-02-16T09:14:24;101053.88;;;12.17;100.00
81802;BME280;71199;52.490;5.448;2024-02-16T09:16:49;101054.72;;;12.18;100.00
81802;BME280;71199;52.490;5.448;2024-02-16T09:19:17;101046.47;;;12.18;100.00
81802;BME280;71199;52.490;5.448;2024-02-16T09:21:44;101068.47;;;12.26;100.00
81802;BME280;71199;52.490;5.448;2024-02-16T09:24:10;101069.31;;;12.26;100.00
81802;BME280;71199;52.490;5.448;2024-02-16T09:26:39;101065.84;;;12.33;100.00
81802;BME280;71199;52.490;5.448;2024-02-16T09:29:05;101069.28;;;12.35;100.00
81802;BME280;71199;52.490;5.448;2024-02-16T09:31:31;101082.72;;;12.38;100.00
81802;BME280;71199;52.490;5.448;2024-02-16T09:33:57;101078.06;;;12.38;100.00
81802;BME280;71199;52.490;5.448;2024-02-16T09:36:22;101091.16;;;12.36;100.00
81802;BME280;71199;52.490;5.448;2024-02-16T09:38:48;101099.44;;;12.36;100.00
81802;BME280;71199;52.490;5.448;2024-02-16T09:41:14;101103.53;;;12.40;100.00
81802;BME280;71199;52.490;5.448;2024-02-16T09:43:41;101104.44;;;12.33;100.00
81802;BME280;71199;52.490;5.448;2024-02-16T09:46:08;101106.00;;;12.27;100.00
81802;BME280;71199;52.490;5.448;2024-02-16T09:48:34;101108.09;;;12.17;100.00
81802;BME280;71199;52.490;5.448;2024-02-16T09:50:59;101129.16;;;12.09;100.00
81802;BME280;71199;52.490;5.448;2024-02-16T09:53:27;101122.59;;;12.02;100.00
81802;BME280;71199;52.490;5.448;2024-02-16T09:55:52;101131.56;;;12.04;100.00
81802;BME280;71199;52.490;5.448;2024-02-16T09:58:18;101124.34;;;12.03;100.00
81802;BME280;71199;52.490;5.448;2024-02-16T10:00:49;101132.22;;;12.06;100.00
81802;BME280;71199;52.490;5.448;2024-02-16T10:03:31;101127.63;;;11.99;100.00
81802;BME280;71199;52.490;5.448;2024-02-16T10:06:10;101129.50;;;11.98;100.00
81802;BME280;71199;52.490;5.448;2024-02-16T10:08:53;101145.69;;;12.01;100.00
81802;BME280;71199;52.490;5.448;2024-02-16T10:11:20;101153.25;;;12.07;100.00
81802;BME280;71199;52.490;5.448;2024-02-16T10:16:24;101169.09;;;12.05;100.00
81802;BME280;71199;52.490;5.448;2024-02-16T10:18:50;101182.19;;;11.95;100.00
81802;BME280;71199;52.490;5.448;2024-02-16T10:21:28;101189.38;;;11.88;100.00
81802;BME280;71199;52.490;5.448;2024-02-16T10:24:00;101191.28;;;11.79;100.00
81802;BME280;71199;52.490;5.448;2024-02-16T10:26:30;101205.25;;;11.69;100.00
81802;BME280;71199;52.490;5.448;2024-02-16T10:28:57;101206.63;;;11.65;100.00
81802;BME280;71199;52.490;5.448;2024-02-16T10:31:23;101212.81;;;11.51;100.00
81802;BME280;71199;52.490;5.448;2024-02-16T10:34:02;101216.25;;;11.37;100.00
81802;BME280;71199;52.490;5.448;2024-02-16T10:36:32;101238.38;;;11.27;100.00
81802;BME280;71199;52.490;5.448;2024-02-16T10:38:58;101247.44;;;11.03;100.00
81802;BME280;71199;52.490;5.448;2024-02-16T10:41:27;101243.59;;;10.87;100.00
81802;BME280;71199;52.490;5.448;2024-02-16T10:43:54;101255.38;;;10.72;100.00
81802;BME280;71199;52.490;5.448;2024-02-16T10:46:20;101268.50;;;10.52;100.00
81802;BME280;71199;52.490;5.448;2024-02-16T10:48:46;101266.53;;;10.36;100.00
81802;BME280;71199;52.490;5.448;2024-02-16T10:51:12;101270.91;;;10.28;100.00
81802;BME280;71199;52.490;5.448;2024-02-16T10:53:42;101279.28;;;10.27;100.00
81802;BME280;71199;52.490;5.448;2024-02-16T10:56:07;101274.63;;;10.19;100.00
81802;BME280;71199;52.490;5.448;2024-02-16T10:58:33;101288.16;;;10.21;100.00
81802;BME280;71199;52.490;5.448;2024-02-16T11:01:08;101285.22;;;10.14;100.00
81802;BME280;71199;52.490;5.448;2024-02-16T11:03:38;101294.50;;;10.13;100.00
81802;BME280;71199;52.490;5.448;2024-02-16T11:06:14;101287.19;;;10.04;100.00
81802;BME280;71199;52.490;5.448;2024-02-16T11:08:40;101296.75;;;10.00;100.00
81802;BME280;71199;52.490;5.448;2024-02-16T11:11:06;101296.41;;;9.95;100.00
81802;BME280;71199;52.490;5.448;2024-02-16T11:13:33;101296.22;;;9.96;100.00
81802;BME280;71199;52.490;5.448;2024-02-16T11:16:01;101284.53;;;9.94;100.00
81802;BME280;71199;52.490;5.448;2024-02-16T11:18:28;101296.06;;;9.98;100.00
81802;BME280;71199;52.490;5.448;2024-02-16T11:20:54;101295.28;;;10.05;100.00
81802;BME280;71199;52.490;5.448;2024-02-16T11:23:28;101292.75;;;10.12;100.00
81802;BME280;71199;52.490;5.448;2024-02-16T11:25:54;101309.06;;;10.14;100.00
81802;BME280;71199;52.490;5.448;2024-02-16T11:28:26;101316.13;;;10.16;100.00
81802;BME280;71199;52.490;5.448;2024-02-16T11:30:52;101311.13;;;10.12;100.00
81802;BME280;71199;52.490;5.448;2024-02-16T11:33:17;101311.75;;;10.05;100.00
81802;BME280;71199;52.490;5.448;2024-02-16T11:35:52;101317.69;;;10.19;100.00
81802;BME280;71199;52.490;5.448;2024-02-16T11:38:18;101325.47;;;10.23;100.00
81802;BME280;71199;52.490;5.448;2024-02-16T11:41:02;101334.84;;;10.21;100.00
81802;BME280;71199;52.490;5.448;2024-02-16T11:43:28;101316.97;;;10.17;100.00
81802;BME280;71199;52.490;5.448;2024-02-16T11:45:54;101315.25;;;10.16;100.00
81802;BME280;71199;52.490;5.448;2024-02-16T11:48:24;101325.28;;;10.25;100.00
81802;BME280;71199;52.490;5.448;2024-02-16T11:50:59;101331.56;;;10.35;100.00
81802;BME280;71199;52.490;5.448;2024-02-16T11:53:24;101343.97;;;10.39;100.00
81802;BME280;71199;52.490;5.448;2024-02-16T11:55:50;101350.88;;;10.43;100.00
81802;BME280;71199;52.490;5.448;2024-02-16T11:58:19;101354.25;;;10.37;100.00
81802;BME280;71199;52.490;5.448;2024-02-16T12:00:45;101360.44;;;10.39;100.00
81802;BME280;71199;52.490;5.448;2024-02-16T12:03:18;101371.78;;;10.36;100.00
81802;BME280;71199;52.490;5.448;2024-02-16T12:05:57;101368.88;;;10.38;100.00
81802;BME280;71199;52.490;5.448;2024-02-16T12:08:24;101378.75;;;10.31;100.00
81802;BME280;71199;52.490;5.448;2024-02-16T12:10:56;101395.28;;;10.21;100.00
81802;BME280;71199;52.490;5.448;2024-02-16T12:13:22;101402.44;;;10.14;100.00
81802;BME280;71199;52.490;5.448;2024-02-16T12:15:48;101406.75;;;10.16;100.00
81802;BME280;71199;52.490;5.448;2024-02-16T12:18:24;101403.38;;;10.22;100.00
81802;BME280;71199;52.490;5.448;2024-02-16T12:20:59;101411.38;;;10.16;100.00
81802;BME280;71199;52.490;5.448;2024-02-16T12:23:25;101413.50;;;10.22;100.00
81802;BME280;71199;52.490;5.448;2024-02-16T12:25:50;101421.91;;;10.20;100.00
81802;BME280;71199;52.490;5.448;2024-02-16T12:28:16;101425.69;;;10.19;100.00
81802;BME280;71199;52.490;5.448;2024-02-16T12:30:41;101424.50;;;10.22;100.00
81802;BME280;71199;52.490;5.448;2024-02-16T12:33:06;101418.38;;;10.28;100.00
81802;BME280;71199;52.490;5.448;2024-02-16T12:35:32;101417.13;;;10.40;100.00
81802;BME280;71199;52.490;5.448;2024-02-16T12:37:58;101428.28;;;10.57;100.00
81802;BME280;71199;52.490;5.448;2024-02-16T12:40:24;101436.03;;;10.61;100.00
81802;BME280;71199;52.490;5.448;2024-02-16T12:42:49;101433.56;;;10.76;100.00